createdAt,value
2018-05-06T00:00:16.492Z,9.90
2018-05-06T00:02:51.095Z,9.87
2018-05-06T00:05:25.033Z,10.47
2018-05-06T00:07:59.568Z,10.20
2018-05-06T00:10:33.495Z,10.03
2018-05-06T00:13:07.284Z,9.47
2018-05-06T00:15:42.054Z,9.13
2018-05-06T00:18:16.606Z,10.23
2018-05-06T00:20:51.315Z,9.40
2018-05-06T00:23:25.835Z,9.77
2018-05-06T00:26:00.485Z,8.47
2018-05-06T00:28:34.129Z,9.93
2018-05-06T00:31:08.671Z,9.43
2018-05-06T00:33:42.312Z,11.70
2018-05-06T00:36:16.927Z,9.70
2018-05-06T00:38:51.254Z,11.40
2018-05-06T00:41:25.907Z,10.77
2018-05-06T00:43:59.910Z,10.53
2018-05-06T00:46:34.922Z,13.60
2018-05-06T00:49:08.702Z,9.07
2018-05-06T00:51:43.153Z,8.97
2018-05-06T00:54:28.791Z,10.53
2018-05-06T00:57:02.307Z,9.83
2018-05-06T00:59:36.979Z,9.07
2018-05-06T01:02:12.211Z,12.07
2018-05-06T01:04:46.624Z,9.43
2018-05-06T01:07:20.987Z,9.13
2018-05-06T01:09:55.558Z,11.67
2018-05-06T01:12:29.542Z,11.97
2018-05-06T01:15:03.495Z,9.53
2018-05-06T01:17:38.827Z,11.53
2018-05-06T01:20:13.580Z,8.97
2018-05-06T01:22:48.176Z,9.23
2018-05-06T01:25:22.799Z,15.33
2018-05-06T01:27:56.381Z,10.50
2018-05-06T01:30:30.969Z,11.73
2018-05-06T01:33:05.551Z,11.20
2018-05-06T01:35:40.083Z,9.60
2018-05-06T01:38:14.733Z,8.87
2018-05-06T01:40:49.300Z,12.43
2018-05-06T01:43:23.194Z,9.77
2018-05-06T01:45:56.972Z,8.87
2018-05-06T01:48:31.650Z,10.67
2018-05-06T01:51:06.186Z,10.57
2018-05-06T01:53:40.622Z,11.50
2018-05-06T01:56:14.395Z,11.93
2018-05-06T01:58:48.294Z,8.87
2018-05-06T02:01:22.015Z,8.73
2018-05-06T02:03:55.586Z,12.10
2018-05-06T02:06:29.910Z,9.63
2018-05-06T02:09:03.815Z,13.47
2018-05-06T02:11:37.456Z,9.07
2018-05-06T02:14:11.140Z,11.03
2018-05-06T02:16:44.897Z,9.73
2018-05-06T02:19:19.155Z,11.47
2018-05-06T02:21:53.105Z,9.63
2018-05-06T02:24:26.629Z,10.17
2018-05-06T02:27:00.418Z,8.63
2018-05-06T02:29:35.543Z,11.50
2018-05-06T02:32:09.984Z,11.47
2018-05-06T02:34:44.494Z,10.00
2018-05-06T02:37:19.403Z,10.07
2018-05-06T02:39:53.075Z,14.57
2018-05-06T02:42:27.460Z,8.63
2018-05-06T02:45:01.893Z,10.40
2018-05-06T02:47:35.595Z,10.27
2018-05-06T02:50:10.391Z,10.77
2018-05-06T02:52:44.817Z,9.67
2018-05-06T02:55:18.613Z,10.67
2018-05-06T02:57:53.044Z,8.93
2018-05-06T03:00:26.999Z,11.60
2018-05-06T03:03:01.721Z,11.87
2018-05-06T03:05:35.363Z,9.57
2018-05-06T03:08:09.938Z,8.93
2018-05-06T03:10:44.203Z,11.73
2018-05-06T03:13:18.974Z,10.10
2018-05-06T03:15:53.646Z,10.20
2018-05-06T03:18:28.263Z,12.03
2018-05-06T03:21:01.731Z,8.50
2018-05-06T03:23:36.360Z,10.77
2018-05-06T03:26:11.011Z,9.27
2018-05-06T03:28:45.353Z,8.60
2018-05-06T03:31:19.191Z,13.40
2018-05-06T03:33:54.319Z,8.10
2018-05-06T03:36:28.124Z,11.10
2018-05-06T03:39:02.757Z,8.17
2018-05-06T03:41:36.399Z,9.70
2018-05-06T03:44:11.167Z,12.13
2018-05-06T03:46:45.087Z,11.33
2018-05-06T03:49:20.602Z,9.77
2018-05-06T03:51:55.224Z,8.70
2018-05-06T03:54:30.068Z,10.57
2018-05-06T03:57:15.651Z,8.07
2018-05-06T04:00:01.598Z,9.77
2018-05-06T04:02:38.001Z,8.47
2018-05-06T04:05:12.123Z,7.97
2018-05-06T04:07:45.920Z,7.47
2018-05-06T04:10:19.780Z,9.03
2018-05-06T04:12:55.159Z,9.70
2018-05-06T04:15:29.810Z,7.90
2018-05-06T04:18:04.540Z,7.87
2018-05-06T04:20:38.186Z,8.57
2018-05-06T04:23:11.922Z,8.50
2018-05-06T04:25:46.364Z,8.07
2018-05-06T04:28:20.976Z,8.70
2018-05-06T04:30:54.978Z,7.97
2018-05-06T04:33:29.559Z,7.63
2018-05-06T04:36:05.056Z,7.20
2018-05-06T04:38:39.832Z,9.03
2018-05-06T04:41:13.637Z,10.13
2018-05-06T04:43:47.449Z,7.33
2018-05-06T04:46:22.565Z,7.43
2018-05-06T04:48:56.281Z,6.83
2018-05-06T04:51:29.841Z,11.27
2018-05-06T04:54:04.311Z,7.07
2018-05-06T04:56:38.617Z,7.23
2018-05-06T04:59:13.193Z,8.00
2018-05-06T05:01:48.534Z,7.10
2018-05-06T05:04:22.206Z,7.47
2018-05-06T05:06:56.612Z,8.10
2018-05-06T05:09:31.168Z,8.70
2018-05-06T05:12:04.646Z,7.40
2018-05-06T05:14:39.799Z,6.70
2018-05-06T05:17:14.275Z,7.70
2018-05-06T05:19:49.362Z,9.27
2018-05-06T05:22:23.408Z,9.20
2018-05-06T05:24:57.446Z,5.93
2018-05-06T05:27:31.342Z,9.73
2018-05-06T05:30:05.074Z,5.80
2018-05-06T05:32:38.981Z,6.23
2018-05-06T05:35:12.770Z,7.20
2018-05-06T05:37:46.508Z,7.40
2018-05-06T05:40:20.677Z,6.77
2018-05-06T05:42:55.393Z,6.10
2018-05-06T05:45:30.780Z,6.43
2018-05-06T05:48:04.615Z,5.03
2018-05-06T05:50:38.274Z,6.07
2018-05-06T05:53:12.891Z,7.27
2018-05-06T05:55:47.480Z,6.20
2018-05-06T05:58:21.221Z,6.60
2018-05-06T06:00:55.713Z,6.60
2018-05-06T06:03:31.179Z,4.93
2018-05-06T06:06:05.007Z,4.90
2018-05-06T06:08:44.164Z,5.90
2018-05-06T06:11:18.065Z,5.67
2018-05-06T06:13:51.490Z,5.07
2018-05-06T06:16:25.556Z,5.10
2018-05-06T06:18:59.404Z,4.63
2018-05-06T06:21:33.391Z,4.80
2018-05-06T06:24:07.996Z,5.43
2018-05-06T06:26:42.575Z,6.73
2018-05-06T06:29:18.104Z,5.17
2018-05-06T06:31:52.738Z,4.97
2018-05-06T06:34:27.183Z,6.13
2018-05-06T06:37:01.599Z,5.67
2018-05-06T06:39:35.509Z,4.63
2018-05-06T06:42:09.971Z,6.27
2018-05-06T06:44:43.936Z,5.40
2018-05-06T06:47:18.414Z,7.87
2018-05-06T06:49:53.048Z,6.73
2018-05-06T06:52:27.977Z,5.50
2018-05-06T06:55:01.878Z,5.27
2018-05-06T06:57:35.750Z,4.83
2018-05-06T07:00:09.810Z,5.40
2018-05-06T07:02:44.787Z,6.67
2018-05-06T07:05:19.596Z,5.43
2018-05-06T07:07:54.174Z,6.53
2018-05-06T07:10:28.410Z,6.30
2018-05-06T07:13:03.786Z,7.37
2018-05-06T07:15:38.307Z,6.90
2018-05-06T07:18:13.285Z,6.03
2018-05-06T07:20:48.054Z,7.57
2018-05-06T07:23:21.749Z,6.50
2018-05-06T07:25:56.286Z,6.13
2018-05-06T07:28:30.289Z,8.47
2018-05-06T07:31:04.914Z,6.87
2018-05-06T07:33:39.583Z,5.87
2018-05-06T07:36:13.330Z,7.40
2018-05-06T07:38:47.444Z,6.63
2018-05-06T07:41:21.666Z,6.67
2018-05-06T07:43:55.676Z,7.17
2018-05-06T07:46:29.596Z,6.23
2018-05-06T07:49:04.479Z,7.43
2018-05-06T07:51:38.439Z,9.13
2018-05-06T07:54:13.066Z,7.30
2018-05-06T07:56:47.449Z,7.30
2018-05-06T07:59:21.329Z,6.60
2018-05-06T08:01:56.260Z,6.60
2018-05-06T08:04:30.827Z,8.47
2018-05-06T08:07:04.828Z,7.83
2018-05-06T08:09:39.556Z,7.10
2018-05-06T08:12:14.164Z,7.40
2018-05-06T08:14:48.266Z,10.23
2018-05-06T08:17:23.128Z,8.27
2018-05-06T08:19:57.671Z,8.00
2018-05-06T08:22:32.879Z,7.33
2018-05-06T08:25:07.793Z,8.63
2018-05-06T08:27:42.410Z,7.63
2018-05-06T08:30:16.357Z,8.13
2018-05-06T08:32:50.569Z,8.43
2018-05-06T08:35:24.323Z,11.40
2018-05-06T08:37:58.884Z,10.70
2018-05-06T08:40:33.408Z,8.37
2018-05-06T08:43:07.321Z,9.47
2018-05-06T08:45:41.860Z,9.03
2018-05-06T08:48:16.981Z,8.93
2018-05-06T08:50:51.720Z,8.70
2018-05-06T08:53:26.423Z,9.83
2018-05-06T08:56:01.121Z,9.43
2018-05-06T08:58:35.254Z,10.67
2018-05-06T09:01:10.013Z,8.67
2018-05-06T09:03:43.707Z,9.73
2018-05-06T09:06:17.922Z,8.33
2018-05-06T09:08:52.834Z,9.70
2018-05-06T09:11:27.563Z,8.30
2018-05-06T09:14:01.534Z,9.10
2018-05-06T09:16:35.574Z,10.30
2018-05-06T09:19:10.809Z,11.23
2018-05-06T09:21:44.722Z,8.10
2018-05-06T09:24:19.424Z,9.27
2018-05-06T09:26:54.590Z,9.90
2018-05-06T09:29:29.409Z,9.27
2018-05-06T09:32:04.109Z,8.50
2018-05-06T09:34:37.937Z,9.57
2018-05-06T09:37:12.653Z,9.13
2018-05-06T09:39:47.484Z,10.67
2018-05-06T09:42:21.318Z,9.10
2018-05-06T09:44:55.387Z,8.17
2018-05-06T09:47:30.131Z,8.13
2018-05-06T09:50:04.628Z,9.03
2018-05-06T09:52:38.355Z,7.83
2018-05-06T09:55:13.028Z,6.83
2018-05-06T09:57:47.552Z,11.37
2018-05-06T10:00:21.514Z,6.60
2018-05-06T10:02:56.259Z,8.03
2018-05-06T10:05:30.975Z,8.47
2018-05-06T10:08:05.699Z,8.17
2018-05-06T10:10:39.483Z,6.67
2018-05-06T10:13:14.040Z,5.70
2018-05-06T10:15:48.106Z,5.80
2018-05-06T10:18:21.807Z,9.10
2018-05-06T10:20:56.387Z,7.07
2018-05-06T10:23:30.219Z,6.77
2018-05-06T10:26:04.695Z,6.07
2018-05-06T10:28:38.648Z,5.67
2018-05-06T10:31:13.497Z,6.93
2018-05-06T10:33:47.181Z,8.57
2018-05-06T10:36:22.672Z,5.77
2018-05-06T10:38:56.587Z,6.00
2018-05-06T10:41:30.370Z,5.33
2018-05-06T10:44:05.183Z,8.10
2018-05-06T10:46:39.820Z,7.10
2018-05-06T10:49:13.916Z,7.07
2018-05-06T10:51:48.383Z,6.57
2018-05-06T10:54:23.105Z,5.10
2018-05-06T10:56:57.044Z,6.90
2018-05-06T10:59:31.725Z,9.63
2018-05-06T11:02:07.765Z,6.73
2018-05-06T11:04:42.421Z,4.97
2018-05-06T11:07:17.411Z,7.03
2018-05-06T11:09:52.618Z,7.50
2018-05-06T11:12:28.036Z,5.10
2018-05-06T11:15:03.079Z,10.63
2018-05-06T11:17:37.587Z,8.17
2018-05-06T11:20:11.551Z,9.47
2018-05-06T11:22:46.275Z,7.53
2018-05-06T11:25:20.814Z,7.90
2018-05-06T11:27:55.205Z,5.73
2018-05-06T11:30:28.961Z,7.33
2018-05-06T11:33:02.647Z,6.73
2018-05-06T11:35:37.349Z,5.27
2018-05-06T11:38:11.082Z,4.93
2018-05-06T11:40:45.841Z,6.57
2018-05-06T11:43:20.516Z,4.63
2018-05-06T11:45:54.411Z,9.67
2018-05-06T11:48:29.148Z,5.90
2018-05-06T11:51:03.630Z,7.43
2018-05-06T11:53:38.187Z,5.93
2018-05-06T11:56:13.236Z,5.00
2018-05-06T11:58:47.971Z,7.50
2018-05-06T12:01:21.651Z,4.20
2018-05-06T12:03:55.466Z,4.90
2018-05-06T12:06:30.618Z,7.33
2018-05-06T12:09:05.332Z,6.57
2018-05-06T12:11:40.552Z,7.30
2018-05-06T12:14:15.337Z,5.93
2018-05-06T12:16:49.341Z,4.93
2018-05-06T12:19:23.523Z,6.63
2018-05-06T12:21:58.479Z,5.23
2018-05-06T12:24:32.652Z,4.97
2018-05-06T12:27:06.456Z,7.33
2018-05-06T12:29:41.573Z,5.40
2018-05-06T12:32:16.370Z,5.00
2018-05-06T12:34:50.227Z,7.03
2018-05-06T12:37:25.559Z,6.37
2018-05-06T12:40:00.411Z,6.20
2018-05-06T12:42:34.286Z,5.60
2018-05-06T12:45:08.827Z,4.97
2018-05-06T12:47:42.947Z,4.77
2018-05-06T12:50:17.745Z,4.00
2018-05-06T12:52:52.471Z,4.03
2018-05-06T12:55:27.539Z,4.83
2018-05-06T12:58:02.767Z,5.90
2018-05-06T13:00:36.861Z,5.87
2018-05-06T13:03:10.761Z,5.10
2018-05-06T13:05:44.836Z,7.20
2018-05-06T13:08:19.822Z,6.70
2018-05-06T13:10:53.745Z,6.30
2018-05-06T13:13:28.598Z,4.57
2018-05-06T13:16:03.287Z,7.43
2018-05-06T13:18:38.408Z,5.73
2018-05-06T13:21:12.312Z,9.30
2018-05-06T13:23:47.608Z,4.80
2018-05-06T13:26:21.199Z,4.27
2018-05-06T13:28:56.045Z,5.40
2018-05-06T13:31:30.700Z,5.93
2018-05-06T13:34:06.129Z,5.53
2018-05-06T13:36:41.165Z,6.77
2018-05-06T13:39:16.235Z,5.67
2018-05-06T13:41:50.879Z,4.50
2018-05-06T13:44:24.547Z,6.83
2018-05-06T13:46:58.767Z,5.07
2018-05-06T13:49:32.662Z,4.73
2018-05-06T13:52:08.630Z,5.30
2018-05-06T13:54:42.829Z,4.67
2018-05-06T13:57:18.420Z,6.57
2018-05-06T13:59:53.365Z,6.33
2018-05-06T14:02:27.983Z,4.57
2018-05-06T14:05:02.556Z,5.93
2018-05-06T14:07:36.455Z,7.43
2018-05-06T14:10:10.785Z,7.20
2018-05-06T14:12:46.319Z,6.17
2018-05-06T14:15:21.443Z,4.00
2018-05-06T14:17:56.355Z,4.33
2018-05-06T14:20:31.297Z,4.03
2018-05-06T14:23:06.062Z,5.10
2018-05-06T14:25:40.771Z,4.03
2018-05-06T14:28:16.851Z,4.83
2018-05-06T14:30:50.839Z,3.90
2018-05-06T14:33:25.475Z,4.57
2018-05-06T14:36:00.430Z,3.73
2018-05-06T14:38:35.011Z,3.47
2018-05-06T14:41:10.665Z,4.83
2018-05-06T14:43:45.714Z,4.83
2018-05-06T14:46:32.202Z,4.70
2018-05-06T14:49:05.994Z,4.90
2018-05-06T14:51:40.019Z,5.10
2018-05-06T14:54:14.026Z,3.70
2018-05-06T14:56:48.050Z,3.93
2018-05-06T14:59:23.140Z,3.63
2018-05-06T15:01:58.039Z,4.33
2018-05-06T15:04:32.824Z,3.73
2018-05-06T15:07:07.745Z,4.27
2018-05-06T15:09:42.036Z,3.30
2018-05-06T15:12:18.515Z,4.20
2018-05-06T15:14:52.654Z,5.07
2018-05-06T15:17:26.655Z,4.13
2018-05-06T15:20:01.189Z,4.03
2018-05-06T15:22:35.603Z,4.40
2018-05-06T15:25:10.933Z,6.33
2018-05-06T15:27:45.436Z,3.50
2018-05-06T15:30:19.871Z,3.90
2018-05-06T15:32:53.869Z,4.03
2018-05-06T15:35:28.601Z,4.10
2018-05-06T15:38:03.956Z,4.03
2018-05-06T15:40:38.885Z,3.53
2018-05-06T15:43:13.649Z,4.93
2018-05-06T15:45:47.796Z,4.57
2018-05-06T15:48:22.098Z,4.43
2018-05-06T15:50:56.254Z,4.70
2018-05-06T15:53:31.570Z,5.50
2018-05-06T15:56:07.120Z,3.67
2018-05-06T15:58:42.157Z,3.03
2018-05-06T16:01:17.916Z,6.83
2018-05-06T16:04:04.026Z,5.93
2018-05-06T16:06:38.292Z,3.73
2018-05-06T16:09:13.589Z,3.03
2018-05-06T16:11:48.019Z,2.80
2018-05-06T16:14:22.087Z,5.80
2018-05-06T16:16:56.278Z,5.07
2018-05-06T16:19:31.282Z,7.07
2018-05-06T16:22:05.158Z,6.70
2018-05-06T16:24:40.803Z,3.97
2018-05-06T16:27:14.613Z,4.17
2018-05-06T16:29:49.012Z,4.03
2018-05-06T16:32:23.504Z,3.50
2018-05-06T16:34:58.288Z,4.13
2018-05-06T16:37:32.773Z,6.90
2018-05-06T16:40:07.330Z,5.73
2018-05-06T16:42:41.409Z,5.30
2018-05-06T16:45:16.148Z,2.50
2018-05-06T16:47:52.001Z,4.07
2018-05-06T16:50:26.988Z,3.53
2018-05-06T16:53:02.078Z,2.33
2018-05-06T16:55:36.232Z,3.20
2018-05-06T16:58:11.382Z,4.07
2018-05-06T17:00:46.467Z,5.13
2018-05-06T17:03:21.708Z,3.33
2018-05-06T17:05:56.036Z,4.27
2018-05-06T17:08:30.322Z,2.83
2018-05-06T17:11:04.522Z,6.50
2018-05-06T17:13:39.268Z,3.23
2018-05-06T17:16:13.360Z,2.43
2018-05-06T17:18:48.194Z,4.47
2018-05-06T17:21:22.722Z,3.43
2018-05-06T17:23:56.650Z,3.07
2018-05-06T17:26:31.442Z,2.60
2018-05-06T17:29:06.753Z,3.10
2018-05-06T17:31:40.694Z,4.10
2018-05-06T17:34:14.572Z,5.13
2018-05-06T17:36:48.532Z,4.20
2018-05-06T17:39:24.448Z,2.30
2018-05-06T17:41:58.191Z,2.80
2018-05-06T17:44:33.004Z,4.93
2018-05-06T17:47:07.933Z,2.20
2018-05-06T17:49:42.875Z,3.77
2018-05-06T17:52:17.352Z,4.37
2018-05-06T17:54:51.508Z,3.57
2018-05-06T17:57:26.235Z,4.13
2018-05-06T18:00:00.131Z,6.57
2018-05-06T18:02:34.124Z,3.93
2018-05-06T18:05:08.776Z,3.70
2018-05-06T18:07:42.941Z,4.07
2018-05-06T18:10:18.492Z,4.27
2018-05-06T18:12:53.347Z,3.37
2018-05-06T18:15:28.797Z,10.00
2018-05-06T18:18:04.227Z,3.80
2018-05-06T18:20:39.571Z,4.60
2018-05-06T18:23:15.427Z,4.47
2018-05-06T18:25:51.695Z,2.60
2018-05-06T18:28:26.404Z,2.30
2018-05-06T18:31:00.525Z,2.80
2018-05-06T18:33:36.373Z,2.20
2018-05-06T18:36:11.303Z,4.27
2018-05-06T18:38:46.140Z,3.50
2018-05-06T18:41:22.447Z,3.47
2018-05-06T18:43:58.372Z,5.07
2018-05-06T18:46:32.279Z,7.57
2018-05-06T18:49:09.137Z,5.57
2018-05-06T18:51:43.318Z,2.53
2018-05-06T18:54:18.893Z,2.97
2018-05-06T18:56:52.643Z,2.30
2018-05-06T18:59:29.168Z,4.10
2018-05-06T19:02:03.874Z,3.87
2018-05-06T19:04:39.646Z,3.67
2018-05-06T19:07:15.515Z,2.50
2018-05-06T19:09:49.519Z,5.83
2018-05-06T19:12:24.160Z,3.53
2018-05-06T19:14:58.645Z,4.40
2018-05-06T19:17:33.148Z,2.73
2018-05-06T19:20:10.358Z,3.33
2018-05-06T19:22:45.021Z,2.30
2018-05-06T19:25:19.596Z,2.23
2018-05-06T19:27:54.347Z,5.60
2018-05-06T19:30:29.268Z,3.07
2018-05-06T19:33:04.088Z,2.20
2018-05-06T19:35:38.801Z,2.83
2018-05-06T19:38:13.143Z,2.40
2018-05-06T19:40:47.734Z,5.47
2018-05-06T19:43:23.175Z,4.17
2018-05-06T19:45:57.816Z,8.83
2018-05-06T19:48:32.324Z,5.73
2018-05-06T19:51:06.161Z,3.97
2018-05-06T19:53:41.364Z,3.93
2018-05-06T19:56:16.151Z,5.57
2018-05-06T19:58:51.006Z,4.03
2018-05-06T20:01:24.728Z,2.47
2018-05-06T20:03:59.587Z,3.40
2018-05-06T20:06:33.780Z,3.27
2018-05-06T20:09:08.419Z,1.97
2018-05-06T20:11:42.683Z,4.70
2018-05-06T20:14:17.119Z,4.17
2018-05-06T20:16:51.771Z,3.50
2018-05-06T20:19:27.122Z,2.73
2018-05-06T20:22:01.948Z,3.00
2018-05-06T20:24:36.685Z,5.40
2018-05-06T20:27:11.995Z,2.27
2018-05-06T20:29:46.133Z,2.47
2018-05-06T20:32:20.338Z,2.90
2018-05-06T20:34:54.131Z,2.93
2018-05-06T20:37:29.545Z,5.53
2018-05-06T20:40:04.121Z,2.30
2018-05-06T20:42:39.552Z,4.77
2018-05-06T20:45:15.402Z,3.13
2018-05-06T20:47:50.338Z,6.20
2018-05-06T20:50:25.168Z,2.90
2018-05-06T20:52:59.261Z,2.30
2018-05-06T20:55:33.152Z,3.97
2018-05-06T20:58:07.070Z,2.40
2018-05-06T21:00:43.275Z,2.07
2018-05-06T21:03:18.446Z,2.53
2018-05-06T21:05:52.763Z,2.73
2018-05-06T21:08:28.038Z,2.23
2018-05-06T21:11:03.160Z,3.13
2018-05-06T21:13:39.458Z,2.20
2018-05-06T21:16:14.037Z,2.60
2018-05-06T21:18:48.115Z,2.60
2018-05-06T21:21:22.035Z,5.37
2018-05-06T21:23:56.494Z,2.20
2018-05-06T21:26:30.810Z,2.20
2018-05-06T21:29:04.563Z,5.50
2018-05-06T21:31:39.444Z,4.67
2018-05-06T21:34:16.046Z,3.30
2018-05-06T21:36:51.068Z,3.93
2018-05-06T21:39:27.411Z,2.20
2018-05-06T21:42:02.644Z,3.00
2018-05-06T21:44:37.245Z,4.23
2018-05-06T21:47:11.272Z,3.03
2018-05-06T21:49:48.930Z,2.87
2018-05-06T21:52:24.136Z,5.43
2018-05-06T21:54:58.234Z,2.77
2018-05-06T21:57:32.437Z,3.13
2018-05-06T22:00:07.354Z,3.47
2018-05-06T22:02:42.207Z,2.50
2018-05-06T22:05:16.128Z,2.40
2018-05-06T22:07:51.534Z,4.03
2018-05-06T22:10:26.261Z,5.47
2018-05-06T22:13:00.806Z,4.17
2018-05-06T22:15:37.344Z,2.37
2018-05-06T22:18:11.181Z,3.93
2018-05-06T22:20:46.051Z,2.10
2018-05-06T22:23:20.423Z,4.87
2018-05-06T22:25:55.442Z,2.57
2018-05-06T22:28:30.178Z,2.73
2018-05-06T22:31:07.486Z,4.00
2018-05-06T22:33:42.111Z,2.47
2018-05-06T22:36:15.791Z,2.60
2018-05-06T22:38:50.399Z,2.33
2018-05-06T22:41:25.453Z,3.40
2018-05-06T22:43:59.966Z,3.30
2018-05-06T22:46:34.866Z,1.87
2018-05-06T22:49:09.705Z,2.70
2018-05-06T22:51:44.921Z,2.43
2018-05-06T22:54:19.579Z,4.00
2018-05-06T22:56:54.403Z,2.60
2018-05-06T22:59:28.451Z,4.00
2018-05-06T23:02:02.842Z,2.77
2018-05-06T23:04:37.456Z,2.27
2018-05-06T23:07:12.177Z,4.87
2018-05-06T23:31:04.533Z,2.60
2018-05-06T23:33:38.293Z,2.70
2018-05-06T23:36:12.042Z,3.10
2018-05-06T23:38:45.728Z,4.33
2018-05-06T23:41:19.478Z,2.30
2018-05-06T23:43:54.006Z,6.83
2018-05-06T23:46:29.184Z,2.60
2018-05-06T23:49:03.028Z,4.10
2018-05-06T23:51:37.750Z,2.93
2018-05-06T23:54:11.367Z,2.40
2018-05-06T23:56:46.381Z,5.17
2018-05-06T23:59:20.900Z,2.83
